IST,Max TemperatureF,Mean TemperatureF,Min TemperatureF,Max Dew PointF,MeanDew PointF,Min DewpointF,Max Humidity, Mean Humidity, Min Humidity, Max Sea Level PressureIn, Mean Sea Level PressureIn, Min Sea Level PressureIn, Max VisibilityMiles, Mean VisibilityMiles, Min VisibilityMiles, Max Wind SpeedMPH, Mean Wind SpeedMPH, Max Gust SpeedMPH,PrecipitationIn, CloudCover, Events, WindDirDegrees
2011-10-1,87,82,78,79,76,73,84,78,70,29.86,29.80,29.74,3,2,2,13,5,,0.00,4,,335
2011-10-2,87,84,80,77,76,75,84,80,66,29.86,29.80,29.74,3,2,2,13,5,,0.00,3,,280
2011-10-3,86,82,78,77,76,72,94,82,62,29.86,29.81,29.74,4,2,1,13,4,,0.00,3,,308
2011-10-4,84,81,78,79,75,72,94,81,66,29.86,29.81,29.77,3,2,1,12,3,,0.00,4,Rain,326
2011-10-5,89,84,78,82,76,72,89,79,66,29.89,29.83,29.77,3,2,1,14,5,20,0.00,3,Thunderstorm,2
2011-10-6,93,86,78,77,76,72,89,75,49,29.95,29.87,29.80,2,2,1,14,4,,0.00,3,,104
2011-10-7,95,86,78,77,75,70,84,70,46,29.92,29.84,29.77,3,2,1,12,5,,0.00,3,,359
2011-10-8,91,86,80,81,76,72,89,76,52,29.89,29.84,29.74,3,2,1,12,5,,0.00,4,,5
2011-10-9,93,86,80,79,77,70,89,76,46,29.89,29.83,29.77,3,2,1,14,5,,0.00,3,,328
2011-10-10,93,86,80,79,77,73,94,73,52,29.89,29.83,29.77,2,2,1,13,3,,0.00,1,,323
2011-10-11,91,86,82,82,78,73,94,79,62,29.92,29.83,29.77,2,2,1,12,6,,0.00,3,Thunderstorm,210
2011-10-12,91,83,75,81,77,73,100,82,63,29.92,29.85,29.74,2,2,1,15,6,,0.00,6,Rain-Thunderstorm,29
2011-10-13,91,83,75,79,75,73,94,80,55,29.92,29.80,29.71,2,1,1,15,4,,0.00,6,Rain-Thunderstorm,46
2011-10-14,91,84,77,81,77,72,94,82,66,29.83,29.78,29.68,2,2,1,13,4,,0.00,4,Rain-Thunderstorm,37
2011-10-15,89,84,78,79,74,72,84,77,62,29.83,29.77,29.68,2,2,1,17,6,34,0.00,5,Rain-Thunderstorm,124
2011-10-16,91,83,75,79,74,72,100,74,55,29.89,29.76,29.68,2,2,1,18,3,31,0.00,5,Rain-Thunderstorm,293
2011-10-17,91,83,75,75,73,72,94,71,52,29.83,29.77,29.71,2,2,1,10,6,,0.00,3,,150
2011-10-18,91,86,80,75,73,70,84,69,52,29.86,29.80,29.74,2,1,1,9,4,,0.00,5,,62
2011-10-19,91,86,80,81,75,70,84,72,62,29.83,29.76,29.71,2,1,1,13,5,,0.00,2,,358
2011-10-20,91,84,78,81,76,72,89,74,59,29.80,29.76,29.71,2,1,1,10,5,,0.00,1,,334
2011-10-21,95,86,77,77,71,61,89,64,32,29.86,29.78,29.71,2,2,1,13,3,,0.00,1,,13
2011-10-22,96,87,78,72,64,52,74,49,23,29.86,29.78,29.74,3,2,2,10,5,,0.00,,,61
2011-10-23,96,87,78,68,61,52,65,42,23,29.89,29.82,29.77,3,3,2,12,4,,0.00,1,,46
2011-10-24,95,86,78,64,57,52,54,38,25,29.92,29.83,29.74,4,2,2,12,6,,0.00,,,60
2011-10-25,95,86,78,61,56,50,51,37,24,29.89,29.81,29.74,3,2,2,14,5,,0.00,1,,55
2011-10-26,96,87,78,63,57,52,48,37,23,29.86,29.80,29.74,4,2,1,14,8,,0.00,1,,52
2011-10-27,95,86,78,70,62,54,62,44,25,29.89,29.82,29.77,3,2,1,14,3,,0.00,3,,47
2011-10-28,95,88,80,75,67,61,70,53,39,29.89,29.81,29.74,3,2,1,10,4,,0.00,2,,57
2011-10-29,93,88,82,75,70,64,79,60,46,29.86,29.80,29.74,2,2,2,14,5,,0.00,3,,132
2011-10-30,93,86,80,75,72,66,74,63,43,29.86,29.78,29.71,2,2,1,12,6,,0.00,2,,41
2011-10-31,95,86,78,73,70,61,79,62,32,29.83,29.79,29.74,2,2,1,12,4,,0.00,1,,23